Time;durP1;ratioP1;P1;durP2;ratioP2;P2;SDS_P1;SDS_P2;PMS_P1;PMS_P2;Temp;Humidity;BMP_temperature;BMP_pressure;BME280_temperature;BME280_humidity;BME280_pressure;Samples;Min_cycle;Max_cycle;Signal;HPM_P1;HPM_P2
2023/07/30 00:01:48;;;;;;;2.73;2.63;;;;;;;;;;5013035;28;20412;-58
2023/07/30 00:04:16;;;;;;;5.70;2.33;;;;;;;;;;5013426;28;20424;-59
2023/07/30 00:06:42;;;;;;;2.50;2.40;;;;;;;;;;5013130;28;20443;-59
2023/07/30 00:09:08;;;;;;;2.90;2.90;;;;;;;;;;5012060;28;20923;-59
2023/07/30 00:11:34;;;;;;;2.70;2.60;;;;;;;;;;5012890;28;20443;-59
2023/07/30 00:14:00;;;;;;;3.03;2.90;;;;;;;;;;5013110;28;20463;-58
2023/07/30 00:16:26;;;;;;;2.97;2.87;;;;;;;;;;5011706;28;20992;-58
2023/07/30 00:18:55;;;;;;;3.20;3.00;;;;;;;;;;5013024;28;20431;-58
2023/07/30 00:21:21;;;;;;;2.80;2.60;;;;;;;;;;5013097;28;20424;-59
2023/07/30 00:23:47;;;;;;;5.53;2.87;;;;;;;;;;5012937;28;20491;-58
2023/07/30 00:26:12;;;;;;;2.70;2.60;;;;;;;;;;5012371;28;20423;-59
2023/07/30 00:28:39;;;;;;;2.57;2.47;;;;;;;;;;5012723;28;20782;-58
2023/07/30 00:31:05;;;;;;;3.30;2.90;;;;;;;;;;5013120;28;20943;-59
2023/07/30 00:33:31;;;;;;;2.90;2.80;;;;;;;;;;5012775;28;20440;-58
2023/07/30 00:35:59;;;;;;;2.67;2.57;;;;;;;;;;5011015;28;20482;-58
2023/07/30 00:38:25;;;;;;;2.73;2.63;;;;;;;;;;5012892;28;20412;-58
2023/07/30 00:40:51;;;;;;;3.27;3.13;;;;;;;;;;5012619;28;20422;-58
2023/07/30 00:43:19;;;;;;;7.37;2.87;;;;;;;;;;5012638;28;20450;-58
2023/07/30 00:45:45;;;;;;;2.63;2.50;;;;;;;;;;5012433;28;20529;-59
2023/07/30 00:48:11;;;;;;;2.83;2.73;;;;;;;;;;5012402;28;20877;-58
2023/07/30 00:50:38;;;;;;;4.13;2.60;;;;;;;;;;5012571;28;20448;-59
2023/07/30 00:53:04;;;;;;;2.83;2.73;;;;;;;;;;5012558;28;20423;-58
2023/07/30 00:55:31;;;;;;;2.70;2.50;;;;;;;;;;5012460;28;20463;-58
2023/07/30 00:58:02;;;;;;;3.53;2.60;;;;;;;;;;5012457;28;20884;-59
2023/07/30 01:00:29;;;;;;;2.97;2.87;;;;;;;;;;5012658;28;20396;-59
2023/07/30 01:02:55;;;;;;;6.47;3.07;;;;;;;;;;5012506;28;20859;-58
2023/07/30 01:05:24;;;;;;;2.73;2.63;;;;;;;;;;5012354;28;20434;-58
2023/07/30 01:07:50;;;;;;;3.57;3.13;;;;;;;;;;5012432;28;20454;-59
2023/07/30 01:10:16;;;;;;;3.13;2.80;;;;;;;;;;5012790;28;20423;-59
2023/07/30 01:12:43;;;;;;;3.30;3.00;;;;;;;;;;5012177;28;20463;-58
2023/07/30 01:15:10;;;;;;;3.47;2.80;;;;;;;;;;5012472;28;20467;-58
2023/07/30 01:17:38;;;;;;;3.33;2.53;;;;;;;;;;5011482;28;20434;-59
2023/07/30 01:20:05;;;;;;;2.50;2.40;;;;;;;;;;5010648;28;20411;-58
2023/07/30 01:22:33;;;;;;;2.73;2.63;;;;;;;;;;5011884;28;20924;-57
2023/07/30 01:25:02;;;;;;;3.00;2.77;;;;;;;;;;5010936;28;20468;-58
2023/07/30 01:27:33;;;;;;;7.63;2.93;;;;;;;;;;5011935;28;20426;-59
2023/07/30 01:30:02;;;;;;;3.23;2.93;;;;;;;;;;5012178;28;20436;-58
2023/07/30 01:32:29;;;;;;;2.83;2.63;;;;;;;;;;5012081;28;20418;-58
2023/07/30 01:34:58;;;;;;;2.90;2.80;;;;;;;;;;5011968;28;20478;-59
2023/07/30 01:37:27;;;;;;;2.50;2.50;;;;;;;;;;5010789;28;20503;-58
2023/07/30 01:39:53;;;;;;;3.30;3.10;;;;;;;;;;5012011;28;20414;-58
2023/07/30 01:42:19;;;;;;;2.67;2.57;;;;;;;;;;5012094;28;20453;-59
2023/07/30 01:44:47;;;;;;;2.90;2.80;;;;;;;;;;5011951;28;20768;-62
2023/07/30 01:47:16;;;;;;;2.50;2.40;;;;;;;;;;5011534;28;20459;-62
2023/07/30 01:49:47;;;;;;;2.20;2.20;;;;;;;;;;5011816;28;20432;-62
2023/07/30 01:52:15;;;;;;;3.53;2.63;;;;;;;;;;5010536;28;20438;-62
2023/07/30 01:54:42;;;;;;;2.03;2.03;;;;;;;;;;5011441;28;20464;-62
2023/07/30 01:57:08;;;;;;;2.47;2.37;;;;;;;;;;5013154;28;20449;-62
2023/07/30 01:59:34;;;;;;;2.63;2.63;;;;;;;;;;5015236;28;20458;-62
2023/07/30 02:02:00;;;;;;;2.70;2.50;;;;;;;;;;5015266;28;20426;-62
2023/07/30 02:04:26;;;;;;;2.40;2.30;;;;;;;;;;5015496;28;20923;-62
2023/07/30 02:06:52;;;;;;;3.13;3.03;;;;;;;;;;5015122;28;20450;-61
2023/07/30 02:09:22;;;;;;;2.60;2.60;;;;;;;;;;5015225;28;20518;-62
2023/07/30 02:11:48;;;;;;;2.87;2.63;;;;;;;;;;5015213;28;20488;-61
2023/07/30 02:14:16;;;;;;;2.60;2.40;;;;;;;;;;5015168;28;20961;-61
2023/07/30 02:16:42;;;;;;;2.67;2.57;;;;;;;;;;5015102;28;20912;-62
2023/07/30 02:19:08;;;;;;;3.10;2.87;;;;;;;;;;5014694;28;20446;-61
2023/07/30 02:21:36;;;;;;;3.07;2.97;;;;;;;;;;5015241;28;20404;-62
2023/07/30 02:24:03;;;;;;;3.87;2.87;;;;;;;;;;5015066;28;20910;-62
2023/07/30 02:26:28;;;;;;;3.10;2.90;;;;;;;;;;5014958;28;20444;-61
2023/07/30 02:28:54;;;;;;;3.03;2.77;;;;;;;;;;5014822;28;20442;-61
2023/07/30 02:31:23;;;;;;;2.80;2.70;;;;;;;;;;5014895;28;21019;-61
2023/07/30 02:33:51;;;;;;;2.57;2.47;;;;;;;;;;5015162;28;20938;-61
2023/07/30 02:36:17;;;;;;;2.63;2.50;;;;;;;;;;5014316;28;20431;-61
2023/07/30 02:38:43;;;;;;;2.40;2.30;;;;;;;;;;5015001;28;20445;-61
2023/07/30 02:41:11;;;;;;;2.70;2.50;;;;;;;;;;5014644;28;20742;-62
2023/07/30 02:43:37;;;;;;;2.47;2.37;;;;;;;;;;5014550;28;20418;-61
2023/07/30 02:46:03;;;;;;;2.50;2.50;;;;;;;;;;5014553;28;20428;-62
2023/07/30 02:48:32;;;;;;;2.60;2.50;;;;;;;;;;5014501;28;20474;-62
2023/07/30 02:50:58;;;;;;;2.97;2.87;;;;;;;;;;4995010;28;20421;-61
2023/07/30 02:53:24;;;;;;;2.43;2.43;;;;;;;;;;4994196;28;20494;-61
2023/07/30 02:55:50;;;;;;;3.00;2.90;;;;;;;;;;4994687;28;20472;-61
2023/07/30 02:58:18;;;;;;;2.67;2.57;;;;;;;;;;4994917;28;20440;-61
2023/07/30 03:00:44;;;;;;;3.00;2.80;;;;;;;;;;4993421;28;20425;-61
2023/07/30 03:03:10;;;;;;;2.70;2.70;;;;;;;;;;4994453;28;20424;-61
2023/07/30 03:05:38;;;;;;;3.90;2.83;;;;;;;;;;4994643;28;20515;-61
2023/07/30 03:08:04;;;;;;;2.43;2.33;;;;;;;;;;4993182;28;20436;-61
2023/07/30 03:10:35;;;;;;;2.80;2.70;;;;;;;;;;4994680;28;20927;-61
2023/07/30 03:13:01;;;;;;;3.10;2.60;;;;;;;;;;4992578;28;20530;-63
2023/07/30 03:15:29;;;;;;;3.07;2.80;;;;;;;;;;4994237;28;20892;-61
2023/07/30 03:17:55;;;;;;;3.00;2.60;;;;;;;;;;4994440;28;20455;-61
2023/07/30 03:20:21;;;;;;;2.83;2.63;;;;;;;;;;4994167;28;20443;-61
2023/07/30 03:22:47;;;;;;;2.87;2.70;;;;;;;;;;4994415;28;20395;-61
2023/07/30 03:25:14;;;;;;;2.40;2.30;;;;;;;;;;4993272;28;20932;-62
2023/07/30 03:27:40;;;;;;;2.70;2.60;;;;;;;;;;4992949;28;20793;-61
2023/07/30 03:30:06;;;;;;;5.40;2.83;;;;;;;;;;4994493;28;20506;-61
2023/07/30 03:32:32;;;;;;;2.30;2.30;;;;;;;;;;4993746;28;20435;-61
2023/07/30 03:34:58;;;;;;;2.80;2.70;;;;;;;;;;4994141;28;20468;-61
2023/07/30 03:37:24;;;;;;;2.90;2.80;;;;;;;;;;4993914;28;20444;-61
2023/07/30 03:39:49;;;;;;;3.23;2.93;;;;;;;;;;4993903;28;20507;-61
2023/07/30 03:42:16;;;;;;;2.50;2.40;;;;;;;;;;4993724;28;20894;-62
2023/07/30 03:44:44;;;;;;;3.03;2.50;;;;;;;;;;4993884;28;20827;-61
2023/07/30 03:47:12;;;;;;;2.40;2.40;;;;;;;;;;4993952;28;20430;-61
2023/07/30 03:49:38;;;;;;;2.17;2.13;;;;;;;;;;4993784;28;20720;-61
2023/07/30 03:52:04;;;;;;;2.80;2.60;;;;;;;;;;4992163;28;20423;-61
2023/07/30 03:54:30;;;;;;;2.70;2.70;;;;;;;;;;4993466;28;20475;-62
2023/07/30 03:56:59;;;;;;;3.07;2.87;;;;;;;;;;4993548;28;20503;-61
2023/07/30 03:59:28;;;;;;;2.40;2.30;;;;;;;;;;4993643;28;20438;-61
2023/07/30 04:01:54;;;;;;;2.60;2.53;;;;;;;;;;4993752;28;20963;-62
2023/07/30 04:04:22;;;;;;;2.47;2.27;;;;;;;;;;4993521;28;20449;-62
2023/07/30 04:06:48;;;;;;;2.73;2.63;;;;;;;;;;4993448;28;20419;-61
2023/07/30 04:09:14;;;;;;;2.87;2.77;;;;;;;;;;4993612;28;20424;-61
2023/07/30 04:11:40;;;;;;;2.90;2.57;;;;;;;;;;4993325;28;20477;-61
2023/07/30 04:14:09;;;;;;;3.10;2.80;;;;;;;;;;4993256;28;20530;-61
2023/07/30 04:16:35;;;;;;;2.03;2.00;;;;;;;;;;4991912;28;20452;-61
2023/07/30 04:19:03;;;;;;;2.40;2.13;;;;;;;;;;4993148;28;20436;-61
2023/07/30 04:21:29;;;;;;;2.80;2.33;;;;;;;;;;4993511;28;20772;-61
2023/07/30 04:23:55;;;;;;;3.27;2.90;;;;;;;;;;4993131;28;20406;-61
2023/07/30 04:26:21;;;;;;;2.80;2.70;;;;;;;;;;4993291;28;20934;-62
2023/07/30 04:28:50;;;;;;;2.53;2.30;;;;;;;;;;4992900;28;20420;-61
2023/07/30 04:31:16;;;;;;;2.60;2.50;;;;;;;;;;4992814;28;20415;-62
2023/07/30 04:33:44;;;;;;;3.17;3.07;;;;;;;;;;4992539;28;20435;-62
2023/07/30 04:36:13;;;;;;;2.67;2.50;;;;;;;;;;4992810;28;20465;-61
2023/07/30 04:38:41;;;;;;;2.20;2.10;;;;;;;;;;4992915;28;20428;-62
2023/07/30 04:41:07;;;;;;;2.50;2.40;;;;;;;;;;4992753;28;20493;-61
2023/07/30 04:43:33;;;;;;;2.70;2.60;;;;;;;;;;4992722;28;20422;-61
2023/07/30 04:45:59;;;;;;;2.13;2.03;;;;;;;;;;4992647;28;20414;-61
2023/07/30 04:48:25;;;;;;;8.23;2.30;;;;;;;;;;4992757;28;20415;-61
2023/07/30 04:50:51;;;;;;;2.40;2.30;;;;;;;;;;4992566;28;20448;-62
2023/07/30 04:53:18;;;;;;;3.40;2.37;;;;;;;;;;4992600;28;20472;-62
2023/07/30 04:55:44;;;;;;;2.37;2.37;;;;;;;;;;4992461;28;20475;-61
2023/07/30 04:58:10;;;;;;;2.50;2.40;;;;;;;;;;4992503;28;20414;-61
2023/07/30 05:00:36;;;;;;;3.17;2.37;;;;;;;;;;4992094;28;20690;-62
2023/07/30 05:03:04;;;;;;;2.70;2.23;;;;;;;;;;4991448;28;20430;-62
2023/07/30 05:05:33;;;;;;;2.10;2.10;;;;;;;;;;4990828;28;20418;-61
2023/07/30 05:07:59;;;;;;;2.47;2.33;;;;;;;;;;4992495;28;20439;-61
2023/07/30 05:10:25;;;;;;;4.23;2.07;;;;;;;;;;4992424;28;20426;-61
2023/07/30 05:12:53;;;;;;;2.60;2.40;;;;;;;;;;4992699;28;20447;-61
2023/07/30 05:15:19;;;;;;;5.33;3.90;;;;;;;;;;4992635;28;20459;-61
2023/07/30 05:17:47;;;;;;;2.10;2.10;;;;;;;;;;4992101;28;20478;-61
2023/07/30 05:20:13;;;;;;;2.00;1.97;;;;;;;;;;4992477;28;20954;-60
2023/07/30 05:22:42;;;;;;;2.40;2.20;;;;;;;;;;4992579;28;20540;-61
2023/07/30 05:25:08;;;;;;;2.47;2.37;;;;;;;;;;4992459;28;20422;-61
2023/07/30 05:27:35;;;;;;;3.33;3.13;;;;;;;;;;4992585;28;20414;-61
2023/07/30 05:30:01;;;;;;;2.20;2.00;;;;;;;;;;4991040;28;20434;-61
2023/07/30 05:32:27;;;;;;;2.07;1.97;;;;;;;;;;4994803;28;20461;-61
2023/07/30 05:34:53;;;;;;;2.00;2.00;;;;;;;;;;4996207;28;20500;-62
2023/07/30 05:37:23;;;;;;;2.53;2.33;;;;;;;;;;4995159;28;20928;-61
2023/07/30 05:39:48;;;;;;;2.23;1.97;;;;;;;;;;4996006;28;20810;-61
2023/07/30 05:42:15;;;;;;;1.90;1.90;;;;;;;;;;4994745;28;20431;-61
2023/07/30 05:44:40;;;;;;;2.23;1.70;;;;;;;;;;4996264;28;20428;-61
2023/07/30 05:47:06;;;;;;;2.20;2.10;;;;;;;;;;4996109;28;20417;-62
2023/07/30 05:49:35;;;;;;;2.10;2.00;;;;;;;;;;4995939;28;20416;-62
2023/07/30 05:52:03;;;;;;;4.63;4.37;;;;;;;;;;4995922;28;20930;-61
2023/07/30 05:54:31;;;;;;;2.00;2.00;;;;;;;;;;4996456;28;20470;-61
2023/07/30 05:56:57;;;;;;;2.00;1.90;;;;;;;;;;4995823;28;20439;-61
2023/07/30 05:59:23;;;;;;;2.30;2.20;;;;;;;;;;4995483;28;20494;-61
2023/07/30 06:01:49;;;;;;;2.40;2.40;;;;;;;;;;4995859;28;20441;-62
2023/07/30 06:04:15;;;;;;;2.20;2.10;;;;;;;;;;4995888;28;20937;-62
2023/07/30 06:06:41;;;;;;;4.10;2.27;;;;;;;;;;4993861;28;20428;-63
2023/07/30 06:09:07;;;;;;;2.30;2.10;;;;;;;;;;4994574;28;20451;-63
2023/07/30 06:11:36;;;;;;;7.23;2.10;;;;;;;;;;4994200;28;20431;-63
2023/07/30 06:14:04;;;;;;;2.43;2.43;;;;;;;;;;4995304;28;20450;-62
2023/07/30 06:16:30;;;;;;;1.80;1.80;;;;;;;;;;4993922;28;20925;-62
2023/07/30 06:18:56;;;;;;;5.77;1.93;;;;;;;;;;4995491;28;20454;-63
2023/07/30 06:21:25;;;;;;;1.93;1.83;;;;;;;;;;4995443;28;20918;-62
2023/07/30 06:23:51;;;;;;;2.20;2.10;;;;;;;;;;4995161;28;20779;-62
2023/07/30 06:26:17;;;;;;;1.70;1.70;;;;;;;;;;4993881;28;20439;-62
2023/07/30 06:28:43;;;;;;;2.30;2.10;;;;;;;;;;4995528;28;20420;-62
2023/07/30 06:31:09;;;;;;;2.50;1.87;;;;;;;;;;4995483;28;20447;-62
2023/07/30 06:33:35;;;;;;;1.90;1.80;;;;;;;;;;4995318;28;20420;-61
2023/07/30 06:36:01;;;;;;;1.80;1.70;;;;;;;;;;4993996;28;20480;-61
2023/07/30 06:38:27;;;;;;;2.10;1.90;;;;;;;;;;4994731;28;20490;-62
2023/07/30 06:40:53;;;;;;;1.67;1.67;;;;;;;;;;4995092;28;20429;-61
2023/07/30 06:43:21;;;;;;;1.80;1.80;;;;;;;;;;4994675;28;20424;-61
2023/07/30 06:45:47;;;;;;;1.90;1.90;;;;;;;;;;4995311;28;20891;-62
2023/07/30 06:48:16;;;;;;;3.10;2.27;;;;;;;;;;4994644;28;20454;-62
2023/07/30 06:50:42;;;;;;;1.83;1.83;;;;;;;;;;4995073;28;20509;-61
2023/07/30 06:53:10;;;;;;;1.50;1.50;;;;;;;;;;4994950;28;20809;-61
2023/07/30 06:55:36;;;;;;;1.70;1.43;;;;;;;;;;4994965;28;20574;-62
2023/07/30 06:58:05;;;;;;;5.13;2.03;;;;;;;;;;4994819;28;20943;-61
2023/07/30 07:00:31;;;;;;;2.17;2.07;;;;;;;;;;4994812;28;20942;-61
2023/07/30 07:02:57;;;;;;;1.63;1.53;;;;;;;;;;4994626;28;20490;-62
2023/07/30 07:05:23;;;;;;;2.10;2.00;;;;;;;;;;4994606;28;20436;-62
2023/07/30 07:07:49;;;;;;;2.17;2.17;;;;;;;;;;4995019;28;20911;-62
2023/07/30 07:10:15;;;;;;;2.33;1.93;;;;;;;;;;4994852;28;20446;-62
2023/07/30 07:12:41;;;;;;;2.07;1.97;;;;;;;;;;4993466;28;20939;-62
2023/07/30 07:15:07;;;;;;;7.33;2.13;;;;;;;;;;4993256;28;20974;-62
2023/07/30 07:17:36;;;;;;;1.90;1.90;;;;;;;;;;4994529;28;20436;-62
2023/07/30 07:20:04;;;;;;;2.10;2.00;;;;;;;;;;4994532;28;20812;-62
2023/07/30 07:22:31;;;;;;;4.17;1.97;;;;;;;;;;4994506;28;20427;-62
2023/07/30 07:24:57;;;;;;;2.90;2.07;;;;;;;;;;4994095;28;20467;-63
2023/07/30 07:27:25;;;;;;;2.50;2.23;;;;;;;;;;4991977;28;20435;-62
2023/07/30 07:29:52;;;;;;;2.57;1.60;;;;;;;;;;4994142;28;20438;-62
2023/07/30 07:32:18;;;;;;;3.80;2.10;;;;;;;;;;4993966;28;20617;-62
2023/07/30 07:34:48;;;;;;;1.97;1.80;;;;;;;;;;4992364;28;20479;-62
2023/07/30 07:37:15;;;;;;;1.93;1.83;;;;;;;;;;4993887;28;20459;-62
2023/07/30 07:39:41;;;;;;;1.60;1.50;;;;;;;;;;4994162;28;20468;-62
2023/07/30 07:42:07;;;;;;;1.83;1.80;;;;;;;;;;4993948;28;20491;-62
2023/07/30 07:44:33;;;;;;;1.97;1.87;;;;;;;;;;4992612;28;20414;-62
2023/07/30 07:46:59;;;;;;;2.03;2.00;;;;;;;;;;4993531;28;20450;-62
2023/07/30 07:49:25;;;;;;;1.77;1.70;;;;;;;;;;4993786;28;20461;-61
2023/07/30 07:51:51;;;;;;;1.73;1.73;;;;;;;;;;4993855;28;20515;-62
2023/07/30 07:54:20;;;;;;;1.57;1.57;;;;;;;;;;4993621;28;20451;-63
2023/07/30 07:56:46;;;;;;;1.60;1.60;;;;;;;;;;4992643;28;20437;-62
2023/07/30 07:59:12;;;;;;;1.80;1.70;;;;;;;;;;4994290;28;20444;-62
2023/07/30 08:01:38;;;;;;;2.03;1.93;;;;;;;;;;4993936;28;20440;-63
2023/07/30 08:04:06;;;;;;;2.57;2.37;;;;;;;;;;4993335;28;20796;-62
2023/07/30 08:06:32;;;;;;;2.40;2.30;;;;;;;;;;4993208;28;20422;-63
2023/07/30 08:08:58;;;;;;;2.00;1.90;;;;;;;;;;4993582;28;20417;-62
2023/07/30 08:11:24;;;;;;;2.40;1.70;;;;;;;;;;4993072;28;20437;-64
2023/07/30 08:13:50;;;;;;;2.10;2.00;;;;;;;;;;4993698;28;20404;-62
2023/07/30 08:16:16;;;;;;;2.53;2.43;;;;;;;;;;4992113;28;20484;-63
2023/07/30 08:18:42;;;;;;;9.50;8.43;;;;;;;;;;4993040;28;20456;-63
2023/07/30 08:21:08;;;;;;;1.93;1.87;;;;;;;;;;4992091;28;20428;-63
2023/07/30 08:23:34;;;;;;;1.50;1.50;;;;;;;;;;4993340;28;20888;-62
2023/07/30 08:26:00;;;;;;;1.70;1.70;;;;;;;;;;4992090;28;20516;-62
2023/07/30 08:28:26;;;;;;;2.93;1.50;;;;;;;;;;4993549;28;20443;-65
2023/07/30 08:30:52;;;;;;;1.70;1.60;;;;;;;;;;4993458;28;20896;-62
2023/07/30 08:33:20;;;;;;;1.60;1.60;;;;;;;;;;4993407;28;20451;-62
2023/07/30 08:35:49;;;;;;;1.40;1.40;;;;;;;;;;4993129;28;20468;-63
2023/07/30 08:38:15;;;;;;;4.10;1.97;;;;;;;;;;4993230;28;20438;-64
2023/07/30 08:40:41;;;;;;;3.73;1.50;;;;;;;;;;4991624;28;20434;-62
2023/07/30 08:43:07;;;;;;;1.70;1.60;;;;;;;;;;4993377;28;20426;-63
2023/07/30 08:45:33;;;;;;;5.40;1.80;;;;;;;;;;4992778;28;20936;-62
2023/07/30 08:47:59;;;;;;;1.87;1.77;;;;;;;;;;4992999;28;20413;-63
2023/07/30 08:50:25;;;;;;;1.50;1.50;;;;;;;;;;4993257;28;20442;-62
2023/07/30 08:52:51;;;;;;;1.50;1.40;;;;;;;;;;4992742;28;20425;-62
2023/07/30 08:55:20;;;;;;;1.50;1.50;;;;;;;;;;4992909;28;20481;-62
2023/07/30 08:57:48;;;;;;;2.20;1.43;;;;;;;;;;4992701;28;20414;-62
2023/07/30 09:00:16;;;;;;;1.53;1.40;;;;;;;;;;4992724;28;20407;-62
2023/07/30 09:02:47;;;;;;;1.83;1.63;;;;;;;;;;4992721;28;20406;-62
2023/07/30 09:05:13;;;;;;;1.60;1.50;;;;;;;;;;4992777;28;20406;-62
2023/07/30 09:07:39;;;;;;;1.30;1.30;;;;;;;;;;4992847;28;20444;-61
2023/07/30 09:10:05;;;;;;;1.73;1.63;;;;;;;;;;4992553;28;20438;-62
2023/07/30 09:12:34;;;;;;;1.23;1.23;;;;;;;;;;4992356;28;20465;-61
2023/07/30 09:15:00;;;;;;;1.37;1.30;;;;;;;;;;4991434;28;20676;-61
2023/07/30 09:17:26;;;;;;;1.33;1.33;;;;;;;;;;4991494;28;20895;-61
2023/07/30 09:19:53;;;;;;;1.60;1.60;;;;;;;;;;4992977;28;20552;-62
2023/07/30 09:22:39;;;;;;;1.40;1.40;;;;;;;;;;4992992;28;20460;-62
2023/07/30 09:25:05;;;;;;;2.37;1.47;;;;;;;;;;4993209;28;20904;-62
2023/07/30 09:27:32;;;;;;;1.30;1.30;;;;;;;;;;4993288;28;20437;-62
2023/07/30 09:30:01;;;;;;;1.20;1.20;;;;;;;;;;4992719;28;20427;-62
2023/07/30 09:32:30;;;;;;;1.87;1.77;;;;;;;;;;4993180;28;20476;-63
2023/07/30 09:35:05;;;;;;;1.80;1.80;;;;;;;;;;4991984;28;20976;-62
2023/07/30 09:37:31;;;;;;;3.43;1.50;;;;;;;;;;4993286;28;20516;-63
2023/07/30 09:39:58;;;;;;;1.70;1.60;;;;;;;;;;4993190;28;20521;-63
2023/07/30 09:42:28;;;;;;;1.67;1.57;;;;;;;;;;4993155;28;20410;-63
2023/07/30 09:44:54;;;;;;;1.87;1.77;;;;;;;;;;4993498;28;20413;-63
2023/07/30 09:47:20;;;;;;;1.77;1.67;;;;;;;;;;4993187;28;20477;-59
2023/07/30 09:49:46;;;;;;;2.70;1.83;;;;;;;;;;4993021;28;20475;-59
2023/07/30 09:52:12;;;;;;;1.90;1.83;;;;;;;;;;4991521;28;20434;-60
2023/07/30 09:54:39;;;;;;;1.70;1.60;;;;;;;;;;4992803;28;20540;-60
2023/07/30 09:57:08;;;;;;;1.40;1.40;;;;;;;;;;4992783;28;20829;-60
2023/07/30 09:59:34;;;;;;;3.40;1.50;;;;;;;;;;4992884;28;20397;-59
2023/07/30 10:02:01;;;;;;;1.63;1.63;;;;;;;;;;4992629;28;20440;-60
2023/07/30 10:04:27;;;;;;;1.40;1.40;;;;;;;;;;4992535;28;20841;-59
2023/07/30 10:06:53;;;;;;;1.70;1.70;;;;;;;;;;4992748;28;20954;-59
2023/07/30 10:09:23;;;;;;;1.93;1.80;;;;;;;;;;4992642;28;20510;-59
2023/07/30 10:11:52;;;;;;;1.40;1.33;;;;;;;;;;4992796;28;20455;-59
2023/07/30 10:14:19;;;;;;;3.17;1.90;;;;;;;;;;4992773;28;20502;-59
2023/07/30 10:16:55;;;;;;;2.90;1.80;;;;;;;;;;4992729;28;20428;-59
2023/07/30 10:19:28;;;;;;;8.50;1.50;;;;;;;;;;4996051;28;20928;-58
2023/07/30 10:21:59;;;;;;;1.63;1.63;;;;;;;;;;4996217;28;20435;-59
2023/07/30 10:24:26;;;;;;;1.70;1.70;;;;;;;;;;4996213;28;20471;-59
2023/07/30 10:26:53;;;;;;;4.53;1.70;;;;;;;;;;4996123;28;20425;-59
2023/07/30 10:29:23;;;;;;;6.90;6.50;;;;;;;;;;4995945;28;20425;-60
2023/07/30 10:31:49;;;;;;;1.93;1.70;;;;;;;;;;4996159;28;20788;-60
2023/07/30 10:34:15;;;;;;;1.83;1.73;;;;;;;;;;4995972;28;20421;-59
2023/07/30 10:36:43;;;;;;;1.73;1.60;;;;;;;;;;4996210;28;20437;-60
2023/07/30 10:39:13;;;;;;;2.03;1.90;;;;;;;;;;4996051;28;20437;-60
2023/07/30 10:41:39;;;;;;;2.07;1.97;;;;;;;;;;4995797;28;20414;-58
2023/07/30 10:44:05;;;;;;;1.83;1.83;;;;;;;;;;4995618;28;20438;-59
2023/07/30 10:46:32;;;;;;;3.60;3.50;;;;;;;;;;4995566;28;20475;-59
2023/07/30 10:49:00;;;;;;;6.10;5.67;;;;;;;;;;4995530;28;20495;-59
2023/07/30 10:51:26;;;;;;;1.40;1.40;;;;;;;;;;4995782;28;20476;-59
2023/07/30 10:53:52;;;;;;;1.70;1.57;;;;;;;;;;4995563;28;20448;-59
2023/07/30 10:56:23;;;;;;;1.93;1.90;;;;;;;;;;4995521;28;20507;-59
2023/07/30 10:58:51;;;;;;;2.20;2.10;;;;;;;;;;4995533;28;20531;-58
2023/07/30 11:01:17;;;;;;;1.53;1.53;;;;;;;;;;4995845;28;20903;-59
2023/07/30 11:03:43;;;;;;;1.93;1.70;;;;;;;;;;4995237;28;20434;-60
2023/07/30 11:06:09;;;;;;;2.40;2.13;;;;;;;;;;4995195;28;20424;-59
2023/07/30 11:08:35;;;;;;;2.27;2.20;;;;;;;;;;4995395;28;20441;-60
2023/07/30 11:11:03;;;;;;;2.20;2.00;;;;;;;;;;4995333;28;20419;-60
2023/07/30 11:13:29;;;;;;;1.47;1.47;;;;;;;;;;4995399;28;20802;-59
2023/07/30 11:15:55;;;;;;;3.87;2.37;;;;;;;;;;4995096;28;20862;-60
2023/07/30 11:18:21;;;;;;;2.30;2.00;;;;;;;;;;4994872;28;20544;-59
2023/07/30 11:20:47;;;;;;;1.53;1.53;;;;;;;;;;4995417;28;20413;-59
2023/07/30 11:23:20;;;;;;;5.90;1.43;;;;;;;;;;4994863;28;20413;-59
2023/07/30 11:25:48;;;;;;;1.57;1.57;;;;;;;;;;4994759;28;20480;-59
2023/07/30 11:28:14;;;;;;;1.80;1.70;;;;;;;;;;4994610;28;20421;-60
2023/07/30 11:30:45;;;;;;;6.73;1.57;;;;;;;;;;4993777;28;20395;-59
2023/07/30 11:33:15;;;;;;;1.87;1.77;;;;;;;;;;4994771;28;20864;-60
2023/07/30 11:35:41;;;;;;;2.30;1.77;;;;;;;;;;4994751;28;20460;-60
2023/07/30 11:38:08;;;;;;;1.93;1.60;;;;;;;;;;4994666;28;20816;-59
2023/07/30 11:40:34;;;;;;;1.80;1.70;;;;;;;;;;4994613;28;20893;-59
2023/07/30 11:43:00;;;;;;;1.77;1.53;;;;;;;;;;4994531;28;20503;-59
2023/07/30 11:45:26;;;;;;;1.60;1.60;;;;;;;;;;4993523;28;20927;-59
2023/07/30 11:47:54;;;;;;;2.00;1.83;;;;;;;;;;4994579;28;20491;-59
2023/07/30 11:50:21;;;;;;;1.77;1.77;;;;;;;;;;4994592;28;20414;-59
2023/07/30 11:52:56;;;;;;;1.73;1.63;;;;;;;;;;4994435;28;20480;-59
2023/07/30 11:55:24;;;;;;;2.00;1.90;;;;;;;;;;4994254;28;20467;-60
2023/07/30 11:57:53;;;;;;;3.23;1.97;;;;;;;;;;4994193;28;20414;-60
2023/07/30 12:00:21;;;;;;;1.70;1.70;;;;;;;;;;5005131;28;20445;-60
2023/07/30 12:02:47;;;;;;;4.73;2.10;;;;;;;;;;5013802;28;20777;-59
2023/07/30 12:05:13;;;;;;;2.17;2.07;;;;;;;;;;5013647;28;20436;-59
2023/07/30 12:07:42;;;;;;;2.20;2.10;;;;;;;;;;5013611;28;20428;-59
2023/07/30 12:10:09;;;;;;;3.60;1.70;;;;;;;;;;5013644;28;20446;-59
2023/07/30 12:12:43;;;;;;;1.60;1.60;;;;;;;;;;5013520;28;21729;-59
2023/07/30 12:15:13;;;;;;;1.83;1.83;;;;;;;;;;5013433;28;20462;-59
2023/07/30 12:17:39;;;;;;;1.83;1.73;;;;;;;;;;5013418;28;20483;-59
2023/07/30 12:20:06;;;;;;;1.67;1.60;;;;;;;;;;5013436;28;20405;-59
2023/07/30 12:22:34;;;;;;;2.03;1.93;;;;;;;;;;5013389;28;20440;-60
2023/07/30 12:25:00;;;;;;;2.43;2.17;;;;;;;;;;5013413;28;20542;-59
2023/07/30 12:27:26;;;;;;;1.90;1.80;;;;;;;;;;5013354;28;20449;-59
2023/07/30 12:29:52;;;;;;;2.00;1.90;;;;;;;;;;5013445;28;20783;-59
2023/07/30 12:32:20;;;;;;;1.77;1.67;;;;;;;;;;5013324;28;20494;-60
2023/07/30 12:34:46;;;;;;;1.77;1.67;;;;;;;;;;5013038;28;20472;-59
2023/07/30 12:37:14;;;;;;;4.10;1.93;;;;;;;;;;5013108;28;20500;-59
2023/07/30 12:39:40;;;;;;;1.77;1.77;;;;;;;;;;5013018;28;20439;-59
2023/07/30 12:42:09;;;;;;;1.60;1.60;;;;;;;;;;5012855;28;20431;-59
2023/07/30 12:44:35;;;;;;;2.10;1.90;;;;;;;;;;5012877;28;20918;-59
2023/07/30 12:47:01;;;;;;;1.80;1.60;;;;;;;;;;5013042;28;20404;-59
2023/07/30 12:49:27;;;;;;;1.60;1.50;;;;;;;;;;5012779;28;20448;-59
2023/07/30 12:51:53;;;;;;;3.50;1.60;;;;;;;;;;5013031;28;20407;-59
2023/07/30 12:54:21;;;;;;;1.80;1.70;;;;;;;;;;5012872;28;20517;-60
2023/07/30 12:56:47;;;;;;;1.27;1.27;;;;;;;;;;5013028;28;20433;-59
2023/07/30 12:59:13;;;;;;;2.73;1.80;;;;;;;;;;5012738;28;20421;-61
2023/07/30 13:01:39;;;;;;;1.90;1.80;;;;;;;;;;5012907;28;20406;-59
2023/07/30 13:04:05;;;;;;;2.40;1.60;;;;;;;;;;5012992;28;21018;-60
2023/07/30 13:06:31;;;;;;;2.73;2.00;;;;;;;;;;5013006;28;20465;-59
2023/07/30 13:08:57;;;;;;;1.73;1.73;;;;;;;;;;5012926;28;20418;-59
2023/07/30 13:11:23;;;;;;;1.97;1.83;;;;;;;;;;5012833;28;20428;-59
2023/07/30 13:13:49;;;;;;;1.90;1.90;;;;;;;;;;5012680;28;20430;-59
2023/07/30 13:16:17;;;;;;;1.97;1.70;;;;;;;;;;5012651;28;20503;-59
2023/07/30 13:18:43;;;;;;;1.60;1.53;;;;;;;;;;5012425;28;20428;-59
2023/07/30 13:21:09;;;;;;;1.60;1.50;;;;;;;;;;5011307;28;20444;-59
2023/07/30 13:23:37;;;;;;;1.60;1.60;;;;;;;;;;5012756;28;20465;-59
2023/07/30 13:26:03;;;;;;;3.90;2.10;;;;;;;;;;5012448;28;20466;-59
2023/07/30 13:28:29;;;;;;;1.70;1.60;;;;;;;;;;5012517;28;20761;-59
2023/07/30 13:30:56;;;;;;;1.90;1.80;;;;;;;;;;5012803;28;20479;-59
2023/07/30 13:33:25;;;;;;;2.07;1.93;;;;;;;;;;5012866;28;20421;-59
2023/07/30 13:35:51;;;;;;;2.20;1.57;;;;;;;;;;5012131;28;20487;-59
2023/07/30 13:38:17;;;;;;;1.60;1.60;;;;;;;;;;5011353;28;20573;-59
2023/07/30 13:40:43;;;;;;;2.70;1.73;;;;;;;;;;5012418;28;20531;-59
2023/07/30 13:43:27;;;;;;;1.60;1.50;;;;;;;;;;5012431;28;20419;-59
2023/07/30 13:45:57;;;;;;;1.63;1.63;;;;;;;;;;5012263;28;20441;-59
2023/07/30 13:48:29;;;;;;;1.60;1.60;;;;;;;;;;5012285;28;20430;-59
2023/07/30 13:50:55;;;;;;;1.70;1.70;;;;;;;;;;5011309;28;20454;-59
2023/07/30 13:56:10;;;;;;;1.77;1.67;;;;;;;;;;5013286;28;21087;-59
2023/07/30 13:58:42;;;;;;;5.63;1.60;;;;;;;;;;5016174;28;20444;-59
2023/07/30 14:01:09;;;;;;;1.90;1.80;;;;;;;;;;5015816;28;20488;-59
2023/07/30 14:03:35;;;;;;;3.27;1.90;;;;;;;;;;5016109;28;20494;-59
2023/07/30 14:06:03;;;;;;;1.80;1.70;;;;;;;;;;5016011;28;20441;-59
2023/07/30 14:08:38;;;;;;;1.70;1.57;;;;;;;;;;5015828;28;20413;-59
2023/07/30 14:11:45;;;;;;;4.10;1.97;;;;;;;;;;5015669;28;20438;-59
2023/07/30 14:14:17;;;;;;;4.50;1.70;;;;;;;;;;5015756;28;20467;-58
2023/07/30 14:16:49;;;;;;;1.67;1.57;;;;;;;;;;5015637;28;20823;-58
2023/07/30 14:19:25;;;;;;;3.70;2.10;;;;;;;;;;5015492;28;20467;-59
2023/07/30 14:22:03;;;;;;;2.93;1.90;;;;;;;;;;5015710;28;20491;-59
2023/07/30 14:24:50;;;;;;;1.30;1.30;;;;;;;;;;5015602;28;20415;-58
2023/07/30 14:27:18;;;;;;;1.80;1.70;;;;;;;;;;5014963;28;20435;-58
2023/07/30 14:30:03;;;;;;;1.80;1.70;;;;;;;;;;5013922;28;20439;-58
2023/07/30 14:32:32;;;;;;;2.97;1.60;;;;;;;;;;5015457;28;20845;-58
2023/07/30 14:35:22;;;;;;;2.60;1.87;;;;;;;;;;5015348;28;20459;-58
2023/07/30 14:41:23;;;;;;;1.90;1.80;;;;;;;;;;4993200;28;20948;-58
2023/07/30 14:44:33;;;;;;;1.87;1.40;;;;;;;;;;5010892;28;20419;-58
2023/07/30 14:47:22;;;;;;;3.20;1.67;;;;;;;;;;5014769;28;20812;-58
2023/07/30 14:50:00;;;;;;;1.83;1.70;;;;;;;;;;5014983;28;20469;-56
2023/07/30 14:52:31;;;;;;;1.30;1.30;;;;;;;;;;5014914;28;20447;-65